createdAt,value
2018-09-18T00:00:50.569Z,13.00
2018-09-18T00:03:18.955Z,13.00
2018-09-18T00:05:47.303Z,12.90
2018-09-18T00:08:15.680Z,12.90
2018-09-18T00:10:44.076Z,12.90
2018-09-18T00:13:12.421Z,12.90
2018-09-18T00:15:40.803Z,12.90
2018-09-18T00:18:09.145Z,12.80
2018-09-18T00:20:37.528Z,12.80
2018-09-18T00:23:06.251Z,12.80
2018-09-18T00:25:35.377Z,12.80
2018-09-18T00:28:03.744Z,12.80
2018-09-18T00:30:32.132Z,12.80
2018-09-18T00:33:00.468Z,12.80
2018-09-18T00:35:28.858Z,12.80
2018-09-18T00:37:57.216Z,12.80
2018-09-18T00:40:25.593Z,12.70
2018-09-18T00:42:53.939Z,12.70
2018-09-18T00:45:22.339Z,12.70
2018-09-18T00:47:50.698Z,12.70
2018-09-18T00:50:19.096Z,12.70
2018-09-18T00:52:47.453Z,12.70
2018-09-18T00:55:15.867Z,12.70
2018-09-18T00:57:44.229Z,12.70
2018-09-18T01:00:12.625Z,12.70
2018-09-18T01:02:41.000Z,12.70
2018-09-18T01:05:09.389Z,12.60
2018-09-18T01:07:37.768Z,12.60
2018-09-18T01:10:06.232Z,12.60
2018-09-18T01:12:34.568Z,12.60
2018-09-18T01:15:02.957Z,12.60
2018-09-18T01:17:31.393Z,12.60
2018-09-18T01:19:59.767Z,12.50
2018-09-18T01:22:28.136Z,12.60
2018-09-18T01:24:56.493Z,12.50
2018-09-18T01:27:24.878Z,12.50
2018-09-18T01:29:53.229Z,12.50
2018-09-18T01:32:21.596Z,12.50
2018-09-18T01:34:49.937Z,12.50
2018-09-18T01:37:18.315Z,12.50
2018-09-18T01:39:46.664Z,12.50
2018-09-18T01:42:15.034Z,12.50
2018-09-18T01:44:43.368Z,12.40
2018-09-18T01:47:11.736Z,12.40
2018-09-18T01:49:40.069Z,12.40
2018-09-18T01:52:08.431Z,12.30
2018-09-18T01:54:36.785Z,12.30
2018-09-18T01:57:05.435Z,12.20
2018-09-18T01:59:33.763Z,12.20
2018-09-18T02:02:02.136Z,12.20
2018-09-18T02:04:30.471Z,12.10
2018-09-18T02:06:58.828Z,12.10
2018-09-18T02:09:27.168Z,12.20
2018-09-18T02:11:55.536Z,12.10
2018-09-18T02:14:23.879Z,12.10
2018-09-18T02:16:52.240Z,12.10
2018-09-18T02:19:20.608Z,12.20
2018-09-18T02:21:48.956Z,12.10
2018-09-18T02:24:17.316Z,12.10
2018-09-18T02:26:45.684Z,12.10
2018-09-18T02:29:14.040Z,12.00
2018-09-18T02:31:42.369Z,12.00
2018-09-18T02:34:10.744Z,12.00
2018-09-18T02:36:39.080Z,12.00
2018-09-18T02:39:09.793Z,12.00
2018-09-18T02:41:38.177Z,12.00
2018-09-18T02:44:06.526Z,12.00
2018-09-18T02:46:34.872Z,12.00
2018-09-18T02:49:03.232Z,12.00
2018-09-18T02:51:31.572Z,11.90
2018-09-18T02:53:59.940Z,11.90
2018-09-18T02:56:28.281Z,11.90
2018-09-18T02:58:56.644Z,11.90
2018-09-18T03:01:24.979Z,11.90
2018-09-18T03:03:53.348Z,11.90
2018-09-18T03:06:21.736Z,11.80
2018-09-18T03:08:50.088Z,11.80
2018-09-18T03:11:18.528Z,11.80
2018-09-18T03:13:46.820Z,11.80
2018-09-18T03:16:15.153Z,11.80
2018-09-18T03:18:43.504Z,11.80
2018-09-18T03:21:11.837Z,11.80
2018-09-18T03:23:40.236Z,11.80
2018-09-18T03:26:08.976Z,11.80
2018-09-18T03:28:37.385Z,11.80
2018-09-18T03:31:05.720Z,11.80
2018-09-18T03:33:34.074Z,11.80
2018-09-18T03:36:02.409Z,11.70
2018-09-18T03:38:30.773Z,11.70
2018-09-18T03:40:59.120Z,11.70
2018-09-18T03:43:27.511Z,11.70
2018-09-18T03:45:55.847Z,11.70
2018-09-18T03:48:24.205Z,11.70
2018-09-18T03:50:52.573Z,11.70
2018-09-18T03:53:20.960Z,11.60
2018-09-18T03:55:49.289Z,11.60
2018-09-18T03:58:17.648Z,11.60
2018-09-18T04:00:45.973Z,11.60
2018-09-18T04:03:14.365Z,11.70
2018-09-18T04:05:42.704Z,11.70
2018-09-18T04:08:11.027Z,11.70
2018-09-18T04:10:39.388Z,11.70
2018-09-18T04:13:07.963Z,11.70
2018-09-18T04:15:36.501Z,11.70
2018-09-18T04:18:04.893Z,11.70
2018-09-18T04:20:33.276Z,11.70
2018-09-18T04:23:01.637Z,11.80
2018-09-18T04:25:30.035Z,11.80
2018-09-18T04:27:58.403Z,11.80
2018-09-18T04:30:26.781Z,11.80
2018-09-18T04:32:55.187Z,11.90
2018-09-18T04:35:23.554Z,11.90
2018-09-18T04:37:51.948Z,11.90
2018-09-18T04:40:20.344Z,12.00
2018-09-18T04:42:48.693Z,12.00
2018-09-18T04:45:17.124Z,12.10
2018-09-18T04:47:45.485Z,12.20
2018-09-18T04:50:13.969Z,12.30
2018-09-18T04:52:42.324Z,12.30
2018-09-18T04:55:10.728Z,12.50
2018-09-18T04:57:39.084Z,12.50
2018-09-18T05:00:08.133Z,12.50
2018-09-18T05:02:36.484Z,12.50
2018-09-18T05:05:05.617Z,12.50
2018-09-18T05:07:34.004Z,12.50
2018-09-18T05:10:02.399Z,12.50
2018-09-18T05:12:30.752Z,12.50
2018-09-18T05:14:59.139Z,12.50
2018-09-18T05:17:27.477Z,12.50
2018-09-18T05:19:55.852Z,12.50
2018-09-18T05:22:24.238Z,12.50
2018-09-18T05:24:52.632Z,12.50
2018-09-18T05:27:20.975Z,12.50
2018-09-18T05:29:49.336Z,12.60
2018-09-18T05:32:17.677Z,12.60
2018-09-18T05:34:46.436Z,12.60
2018-09-18T05:37:14.787Z,12.60
2018-09-18T05:39:43.284Z,12.50
2018-09-18T05:42:11.637Z,12.50
2018-09-18T05:44:40.066Z,12.50
2018-09-18T05:47:09.023Z,12.40
2018-09-18T05:49:37.425Z,12.40
2018-09-18T05:52:06.004Z,12.40
2018-09-18T05:54:34.418Z,12.40
2018-09-18T05:57:02.882Z,12.50
2018-09-18T05:59:31.308Z,12.50
2018-09-18T06:01:59.720Z,12.50
2018-09-18T06:04:28.132Z,12.50
2018-09-18T06:06:56.549Z,12.50
2018-09-18T06:09:24.953Z,12.60
2018-09-18T06:11:53.412Z,12.60
2018-09-18T06:14:21.780Z,12.60
2018-09-18T06:16:50.216Z,12.60
2018-09-18T06:19:18.650Z,12.70
2018-09-18T06:21:47.236Z,12.80
2018-09-18T06:24:16.028Z,12.80
2018-09-18T06:26:44.432Z,12.90
2018-09-18T06:29:12.788Z,13.00
2018-09-18T06:31:41.304Z,13.20
2018-09-18T06:34:09.681Z,13.30
2018-09-18T06:36:38.062Z,13.40
2018-09-18T06:39:08.764Z,13.50
2018-09-18T06:41:37.140Z,13.60
2018-09-18T06:44:05.497Z,13.80
2018-09-18T06:46:33.904Z,13.90
2018-09-18T06:49:02.285Z,14.00
2018-09-18T06:51:30.734Z,14.10
2018-09-18T06:53:59.098Z,14.20
2018-09-18T06:56:27.616Z,14.30
2018-09-18T06:58:56.033Z,14.40
2018-09-18T07:01:24.460Z,14.50
2018-09-18T07:03:52.863Z,14.50
2018-09-18T07:06:21.256Z,14.60
2018-09-18T07:08:49.639Z,14.70
2018-09-18T07:11:18.048Z,14.80
2018-09-18T07:13:46.411Z,14.90
2018-09-18T07:16:14.804Z,15.00
2018-09-18T07:18:43.156Z,15.20
2018-09-18T07:21:11.865Z,15.30
2018-09-18T07:23:40.528Z,15.50
2018-09-18T07:26:09.250Z,15.60
2018-09-18T07:28:37.604Z,15.80
2018-09-18T07:31:06.011Z,16.00
2018-09-18T07:33:34.419Z,16.20
2018-09-18T07:36:02.855Z,16.40
2018-09-18T07:38:31.215Z,16.60
2018-09-18T07:40:59.699Z,16.80
2018-09-18T07:43:27.968Z,17.00
2018-09-18T07:45:56.353Z,17.20
2018-09-18T07:48:26.404Z,17.40
2018-09-18T07:50:54.788Z,17.60
2018-09-18T07:53:23.141Z,17.90
2018-09-18T07:55:51.532Z,18.00
2018-09-18T07:58:19.876Z,18.20
2018-09-18T08:00:48.248Z,18.40
2018-09-18T08:03:16.724Z,18.70
2018-09-18T08:05:45.013Z,19.00
2018-09-18T08:08:13.396Z,19.20
2018-09-18T08:10:41.799Z,19.40
2018-09-18T08:13:10.157Z,19.70
2018-09-18T08:15:38.492Z,19.90
2018-09-18T08:18:06.857Z,20.10
2018-09-18T08:20:35.188Z,20.20
2018-09-18T08:23:03.613Z,20.40
2018-09-18T08:25:31.952Z,20.60
2018-09-18T08:28:00.332Z,20.70
2018-09-18T08:30:28.676Z,20.90
2018-09-18T08:32:57.137Z,21.00
2018-09-18T08:35:25.412Z,21.20
2018-09-18T08:37:53.833Z,21.30
2018-09-18T08:40:22.189Z,21.40
2018-09-18T08:42:50.601Z,21.60
2018-09-18T08:45:18.957Z,21.80
2018-09-18T08:47:47.381Z,21.90
2018-09-18T08:50:15.725Z,22.10
2018-09-18T08:52:44.149Z,22.20
2018-09-18T08:55:12.527Z,22.40
2018-09-18T08:57:40.912Z,22.50
2018-09-18T09:00:09.268Z,22.70
2018-09-18T09:02:37.660Z,22.80
2018-09-18T09:05:06.040Z,22.90
2018-09-18T09:07:34.472Z,23.00
2018-09-18T09:10:02.819Z,23.10
2018-09-18T09:12:31.249Z,23.20
2018-09-18T09:14:59.635Z,23.30
2018-09-18T09:17:28.002Z,23.50
2018-09-18T09:19:56.399Z,23.50
2018-09-18T09:22:24.893Z,23.50
2018-09-18T09:24:53.205Z,23.50
2018-09-18T09:27:21.619Z,23.70
2018-09-18T09:29:49.990Z,23.80
2018-09-18T09:32:18.511Z,24.00
2018-09-18T09:34:46.730Z,24.00
2018-09-18T09:37:15.253Z,24.10
2018-09-18T09:39:43.523Z,24.30
2018-09-18T09:42:11.903Z,24.30
2018-09-18T09:44:40.251Z,24.30
2018-09-18T09:47:08.657Z,24.40
2018-09-18T09:49:37.010Z,24.40
2018-09-18T09:52:05.496Z,24.50
2018-09-18T09:54:33.880Z,24.50
2018-09-18T09:57:02.292Z,24.50
2018-09-18T09:59:30.644Z,24.60
2018-09-18T10:02:04.211Z,24.60
2018-09-18T10:04:32.601Z,24.80
2018-09-18T10:07:00.952Z,24.90
2018-09-18T10:09:29.323Z,25.00
2018-09-18T10:11:57.679Z,25.10
2018-09-18T10:14:26.165Z,25.20
2018-09-18T10:16:54.496Z,25.20
2018-09-18T10:19:22.881Z,25.20
2018-09-18T10:21:51.437Z,25.20
2018-09-18T10:24:19.838Z,25.20
2018-09-18T10:26:48.204Z,25.30
2018-09-18T10:29:16.594Z,25.40
2018-09-18T10:31:44.954Z,25.50
2018-09-18T10:34:13.388Z,25.50
2018-09-18T10:36:41.732Z,25.50
2018-09-18T10:39:11.171Z,25.50
2018-09-18T10:41:39.538Z,25.70
2018-09-18T10:44:08.177Z,25.80
2018-09-18T10:46:36.997Z,25.80
2018-09-18T10:49:05.425Z,25.80
2018-09-18T10:51:33.780Z,25.80
2018-09-18T10:54:02.174Z,25.90
2018-09-18T10:56:30.544Z,25.90
2018-09-18T10:58:58.942Z,26.00
2018-09-18T11:01:27.418Z,26.00
2018-09-18T11:03:55.796Z,25.90
2018-09-18T11:06:24.223Z,25.90
2018-09-18T11:08:52.625Z,25.80
2018-09-18T11:11:21.060Z,25.80
2018-09-18T11:13:49.455Z,26.00
2018-09-18T11:16:17.758Z,26.00
2018-09-18T11:18:46.163Z,26.20
2018-09-18T11:21:14.563Z,26.40
2018-09-18T11:23:42.991Z,26.40
2018-09-18T11:26:11.314Z,26.40
2018-09-18T11:28:39.718Z,26.40
2018-09-18T11:31:08.088Z,26.40
2018-09-18T11:33:36.489Z,26.40
2018-09-18T11:36:04.875Z,26.40
2018-09-18T11:38:33.266Z,26.40
2018-09-18T11:41:01.628Z,26.60
2018-09-18T11:43:30.016Z,26.60
2018-09-18T11:45:58.618Z,26.60
2018-09-18T11:48:26.727Z,26.50
2018-09-18T11:50:55.143Z,26.40
2018-09-18T11:53:23.473Z,26.40
2018-09-18T11:55:51.852Z,26.40
2018-09-18T11:58:20.293Z,26.40
2018-09-18T12:00:48.652Z,26.50
2018-09-18T12:03:17.034Z,26.60
2018-09-18T12:05:45.368Z,26.60
2018-09-18T12:08:14.769Z,26.70
2018-09-18T12:10:43.135Z,26.80
2018-09-18T12:13:11.467Z,26.90
2018-09-18T12:15:39.825Z,27.00
2018-09-18T12:18:08.180Z,27.10
2018-09-18T12:20:36.557Z,27.10
2018-09-18T12:23:04.884Z,27.10
2018-09-18T12:25:33.248Z,27.10
2018-09-18T12:28:01.640Z,27.10
2018-09-18T12:30:29.992Z,27.30
2018-09-18T12:32:58.308Z,27.30
2018-09-18T12:35:26.725Z,27.30
2018-09-18T12:37:55.015Z,27.40
2018-09-18T12:40:23.396Z,27.40
2018-09-18T12:42:51.753Z,27.40
2018-09-18T12:45:20.109Z,27.50
2018-09-18T12:47:48.450Z,27.50
2018-09-18T12:50:17.036Z,27.60
2018-09-18T12:52:45.266Z,27.70
2018-09-18T12:55:13.701Z,27.70
2018-09-18T12:57:42.093Z,27.90
2018-09-18T13:00:10.511Z,27.90
2018-09-18T13:02:38.821Z,28.00
2018-09-18T13:05:07.212Z,28.10
2018-09-18T13:07:35.599Z,28.20
2018-09-18T13:10:04.119Z,28.10
2018-09-18T13:12:32.398Z,28.10
2018-09-18T13:15:00.813Z,28.10
2018-09-18T13:17:29.296Z,28.10
2018-09-18T13:19:57.672Z,28.10
2018-09-18T13:22:26.008Z,28.00
2018-09-18T13:24:54.405Z,27.90
2018-09-18T13:27:23.611Z,27.90
2018-09-18T13:29:52.005Z,27.80
2018-09-18T13:32:20.364Z,27.80
2018-09-18T13:34:48.886Z,27.80
2018-09-18T13:37:17.232Z,27.80
2018-09-18T13:39:45.611Z,27.80
2018-09-18T13:42:13.991Z,27.80
2018-09-18T13:44:42.332Z,27.80
2018-09-18T13:47:10.733Z,27.80
2018-09-18T13:49:39.080Z,27.80
2018-09-18T13:52:07.855Z,27.80
2018-09-18T13:54:36.188Z,27.80
2018-09-18T13:57:04.580Z,28.00
2018-09-18T13:59:32.951Z,27.90
2018-09-18T14:02:01.348Z,27.90
2018-09-18T14:04:29.693Z,27.90
2018-09-18T14:06:58.077Z,27.90
2018-09-18T14:09:26.505Z,27.80
2018-09-18T14:11:54.792Z,27.80
2018-09-18T14:14:23.246Z,27.80
2018-09-18T14:16:51.578Z,27.80
2018-09-18T14:19:19.908Z,27.80
2018-09-18T14:21:48.288Z,27.80
2018-09-18T14:24:16.625Z,27.70
2018-09-18T14:26:45.006Z,27.70
2018-09-18T14:29:13.480Z,27.70
2018-09-18T14:31:41.853Z,27.80
2018-09-18T14:34:10.192Z,27.90
2018-09-18T14:36:38.574Z,27.90
2018-09-18T14:39:08.713Z,27.90
2018-09-18T14:41:37.533Z,28.00
2018-09-18T14:44:05.863Z,28.00
2018-09-18T14:46:34.328Z,28.00
2018-09-18T14:49:02.944Z,28.00
2018-09-18T14:51:31.340Z,27.90
2018-09-18T14:53:59.683Z,27.90
2018-09-18T14:56:28.098Z,27.80
2018-09-18T14:58:56.436Z,27.80
2018-09-18T15:01:24.817Z,27.70
2018-09-18T15:03:53.255Z,27.60
2018-09-18T15:06:21.635Z,27.60
2018-09-18T15:08:50.014Z,27.50
2018-09-18T15:11:18.468Z,27.30
2018-09-18T15:13:46.824Z,27.20
2018-09-18T15:16:15.201Z,27.10
2018-09-18T15:18:43.548Z,27.00
2018-09-18T15:21:11.932Z,26.90
2018-09-18T15:23:40.275Z,26.80
2018-09-18T15:26:08.888Z,26.80
2018-09-18T15:28:37.352Z,26.70
2018-09-18T15:31:05.832Z,26.60
2018-09-18T15:33:34.182Z,26.60
2018-09-18T15:36:02.544Z,26.50
2018-09-18T15:38:31.024Z,26.40
2018-09-18T15:40:59.499Z,26.30
2018-09-18T15:43:27.885Z,26.20
2018-09-18T15:45:56.260Z,26.20
2018-09-18T15:48:24.693Z,26.10
2018-09-18T15:50:53.091Z,26.00
2018-09-18T15:53:21.464Z,25.90
2018-09-18T15:55:49.810Z,25.90
2018-09-18T15:58:18.206Z,25.80
2018-09-18T16:00:46.559Z,25.70
2018-09-18T16:03:14.965Z,25.60
2018-09-18T16:05:43.313Z,25.50
2018-09-18T16:08:11.713Z,25.40
2018-09-18T16:10:40.061Z,25.30
2018-09-18T16:13:08.580Z,25.20
2018-09-18T16:15:36.924Z,25.10
2018-09-18T16:18:05.551Z,24.90
2018-09-18T16:20:33.913Z,24.70
2018-09-18T16:23:02.335Z,24.50
2018-09-18T16:25:30.667Z,24.30
2018-09-18T16:27:59.091Z,24.10
2018-09-18T16:30:27.443Z,24.00
2018-09-18T16:32:55.832Z,24.00
2018-09-18T16:35:24.183Z,23.80
2018-09-18T16:37:52.598Z,23.80
2018-09-18T16:40:21.126Z,23.70
2018-09-18T16:42:49.364Z,23.60
2018-09-18T16:45:17.722Z,23.50
2018-09-18T16:47:46.115Z,23.40
2018-09-18T16:50:14.468Z,23.30
2018-09-18T16:52:42.941Z,23.20
2018-09-18T16:55:11.331Z,23.10
2018-09-18T16:57:39.667Z,23.00
2018-09-18T17:00:08.031Z,23.00
2018-09-18T17:02:36.448Z,22.90
2018-09-18T17:05:04.906Z,22.90
2018-09-18T17:07:33.301Z,22.90
2018-09-18T17:10:01.715Z,22.80
2018-09-18T17:12:30.144Z,22.60
2018-09-18T17:14:58.614Z,22.50
2018-09-18T17:17:26.987Z,22.40
2018-09-18T17:19:55.335Z,22.30
2018-09-18T17:22:23.752Z,22.20
2018-09-18T17:24:52.076Z,22.20
2018-09-18T17:27:20.466Z,22.10
2018-09-18T17:29:48.922Z,22.10
2018-09-18T17:32:17.279Z,22.10
2018-09-18T17:34:45.657Z,22.10
2018-09-18T17:37:14.083Z,22.00
2018-09-18T17:39:42.500Z,22.00
2018-09-18T17:42:10.827Z,22.00
2018-09-18T17:44:39.204Z,21.90
2018-09-18T17:47:07.549Z,21.90
2018-09-18T17:49:36.008Z,21.80
2018-09-18T17:52:04.362Z,21.70
2018-09-18T17:54:32.799Z,21.60
2018-09-18T17:57:04.929Z,21.60
2018-09-18T17:59:34.161Z,21.50
2018-09-18T18:02:02.514Z,21.40
2018-09-18T18:04:30.936Z,21.40
2018-09-18T18:06:59.375Z,21.30
2018-09-18T18:09:27.972Z,21.20
2018-09-18T18:11:56.332Z,21.20
2018-09-18T18:14:24.755Z,21.20
2018-09-18T18:16:53.320Z,21.00
2018-09-18T18:19:21.730Z,20.90
2018-09-18T18:21:50.103Z,20.80
2018-09-18T18:24:18.531Z,20.80
2018-09-18T18:26:46.892Z,20.70
2018-09-18T18:29:15.289Z,20.60
2018-09-18T18:31:43.667Z,20.60
2018-09-18T18:34:12.132Z,20.50
2018-09-18T18:36:40.736Z,20.40
2018-09-18T18:39:09.712Z,20.40
2018-09-18T18:41:38.353Z,20.30
2018-09-18T18:44:06.773Z,20.20
2018-09-18T18:46:35.141Z,20.20
2018-09-18T18:49:03.531Z,20.20
2018-09-18T18:51:31.897Z,20.10
2018-09-18T18:54:00.391Z,20.10
2018-09-18T18:56:28.793Z,20.20
2018-09-18T18:58:57.209Z,20.10
2018-09-18T19:01:25.563Z,20.10
2018-09-18T19:03:53.999Z,20.10
2018-09-18T19:06:22.439Z,20.10
2018-09-18T19:08:50.845Z,20.10
2018-09-18T19:11:19.256Z,20.10
2018-09-18T19:13:47.684Z,20.10
2018-09-18T19:16:16.069Z,20.00
2018-09-18T19:18:44.468Z,20.00
2018-09-18T19:21:12.848Z,20.00
2018-09-18T19:23:41.243Z,20.00
2018-09-18T19:26:09.708Z,20.00
2018-09-18T19:28:38.006Z,19.90
2018-09-18T19:31:06.412Z,19.90
2018-09-18T19:33:34.804Z,19.90
2018-09-18T19:36:03.463Z,19.90
2018-09-18T19:38:31.832Z,19.80
2018-09-18T19:41:00.230Z,19.80
2018-09-18T19:43:28.685Z,19.80
2018-09-18T19:45:57.088Z,19.70
2018-09-18T19:48:25.667Z,19.60
2018-09-18T19:50:54.082Z,19.60
2018-09-18T19:53:22.455Z,19.60
2018-09-18T19:55:50.869Z,19.50
2018-09-18T19:58:19.223Z,19.40
2018-09-18T20:00:47.631Z,19.30
2018-09-18T20:03:16.060Z,19.20
2018-09-18T20:05:44.406Z,19.00
2018-09-18T20:08:12.769Z,18.90
2018-09-18T20:10:41.169Z,18.90
2018-09-18T20:13:09.589Z,18.80
2018-09-18T20:15:38.012Z,18.80
2018-09-18T20:18:06.360Z,18.70
2018-09-18T20:20:34.775Z,18.60
2018-09-18T20:23:03.137Z,18.60
2018-09-18T20:25:31.549Z,18.50
2018-09-18T20:27:59.926Z,18.50
2018-09-18T20:30:28.344Z,18.40
2018-09-18T20:32:56.804Z,18.40
2018-09-18T20:35:25.214Z,18.40
2018-09-18T20:37:53.596Z,18.30
2018-09-18T20:40:22.013Z,18.30
2018-09-18T20:42:50.377Z,18.30
2018-09-18T20:45:18.780Z,18.20
2018-09-18T20:47:47.150Z,18.10
2018-09-18T20:50:15.612Z,18.10
2018-09-18T20:52:44.005Z,18.00
2018-09-18T20:55:12.415Z,17.90
2018-09-18T20:57:40.781Z,17.90
2018-09-18T21:00:09.190Z,17.80
2018-09-18T21:02:37.544Z,17.70
2018-09-18T21:05:05.922Z,17.70
2018-09-18T21:07:34.269Z,17.70
2018-09-18T21:10:02.655Z,17.60
2018-09-18T21:12:31.018Z,17.60
2018-09-18T21:14:59.434Z,17.60
2018-09-18T21:17:27.772Z,17.50
2018-09-18T21:19:56.407Z,17.50
2018-09-18T21:22:24.780Z,17.50
2018-09-18T21:24:59.881Z,17.40
2018-09-18T21:27:28.300Z,17.40
2018-09-18T21:29:56.653Z,17.40
2018-09-18T21:32:25.068Z,17.40
2018-09-18T21:34:53.436Z,17.30
2018-09-18T21:37:21.825Z,17.40
2018-09-18T21:39:50.264Z,17.30
2018-09-18T21:42:18.643Z,17.30
2018-09-18T21:44:47.043Z,17.30
2018-09-18T21:47:15.449Z,17.20
2018-09-18T21:49:43.800Z,17.30
2018-09-18T21:52:12.187Z,17.20
2018-09-18T21:54:40.541Z,17.20
2018-09-18T21:57:08.935Z,17.20
2018-09-18T21:59:37.298Z,17.20
2018-09-18T22:02:05.680Z,17.20
2018-09-18T22:04:34.061Z,17.20
2018-09-18T22:07:02.521Z,17.20
2018-09-18T22:09:30.833Z,17.30
2018-09-18T22:11:59.230Z,17.30
2018-09-18T22:14:28.328Z,17.40
2018-09-18T22:16:56.716Z,17.30
2018-09-18T22:19:25.092Z,17.30
2018-09-18T22:21:53.482Z,17.20
2018-09-18T22:24:21.830Z,17.20
2018-09-18T22:26:50.225Z,17.20
2018-09-18T22:29:18.637Z,17.10
2018-09-18T22:31:46.989Z,17.10
2018-09-18T22:34:15.343Z,17.10
2018-09-18T22:36:43.737Z,17.10
2018-09-18T22:39:12.097Z,17.10
2018-09-18T22:41:40.496Z,17.10
2018-09-18T22:44:08.843Z,17.10
2018-09-18T22:46:37.244Z,17.20
2018-09-18T22:49:05.609Z,17.10
2018-09-18T22:51:34.004Z,17.10
2018-09-18T22:54:02.352Z,17.10
2018-09-18T22:56:30.760Z,17.10
2018-09-18T22:58:59.119Z,17.00
2018-09-18T23:01:27.511Z,17.00
2018-09-18T23:03:55.861Z,16.90
2018-09-18T23:06:24.248Z,16.90
2018-09-18T23:08:52.600Z,16.90
2018-09-18T23:11:20.936Z,16.90
2018-09-18T23:13:49.342Z,16.90
2018-09-18T23:16:17.684Z,16.90
2018-09-18T23:18:46.072Z,16.80
2018-09-18T23:21:14.401Z,16.80
2018-09-18T23:23:42.778Z,16.80
2018-09-18T23:26:11.124Z,16.80
2018-09-18T23:28:39.511Z,16.70
2018-09-18T23:31:07.846Z,16.70
2018-09-18T23:33:36.211Z,16.60
2018-09-18T23:36:04.550Z,16.60
2018-09-18T23:38:32.916Z,16.60
2018-09-18T23:41:01.263Z,16.50
2018-09-18T23:43:29.636Z,16.50
2018-09-18T23:45:58.016Z,16.50
2018-09-18T23:48:26.380Z,16.50
2018-09-18T23:50:54.716Z,16.40
2018-09-18T23:53:23.090Z,16.50
2018-09-18T23:55:51.421Z,16.40
2018-09-18T23:58:19.805Z,16.40
